Time;durP1;ratioP1;P1;durP2;ratioP2;P2;SDS_P1;SDS_P2;PMS_P1;PMS_P2;Temp;Humidity;BMP_temperature;BMP_pressure;BME280_temperature;BME280_humidity;BME280_pressure;Samples;Min_cycle;Max_cycle;Signal;HPM_P1;HPM_P2
2021/12/20 00:01:57;;;;;;;3.73;0.93;;;;;;;4.75;68.88;101294.06;5057430;28;20213;-67
2021/12/20 00:04:23;;;;;;;3.33;0.90;;;;;;;4.97;68.21;101280.31;5057163;28;20631;-68
2021/12/20 00:06:48;;;;;;;4.50;1.07;;;;;;;4.89;68.25;101277.00;5040390;28;20214;-67
2021/12/20 00:09:13;;;;;;;9.93;1.90;;;;;;;4.80;69.04;101281.59;5057388;28;20178;-68
2021/12/20 00:11:39;;;;;;;6.53;1.13;;;;;;;5.00;67.99;101282.91;5057227;28;20171;-68
2021/12/20 00:14:04;;;;;;;2.37;0.97;;;;;;;4.50;69.69;101291.94;5075184;28;20218;-68
2021/12/20 00:16:29;;;;;;;5.57;1.47;;;;;;;4.66;68.63;101277.50;5075029;28;20191;-68
2021/12/20 00:18:55;;;;;;;2.67;0.80;;;;;;;4.98;68.26;101273.25;5057090;28;20291;-67
2021/12/20 00:21:20;;;;;;;7.50;1.20;;;;;;;4.91;68.27;101291.06;5057149;28;20197;-68
2021/12/20 00:23:45;;;;;;;4.10;0.87;;;;;;;4.58;68.04;101265.34;5075194;28;20531;-68
2021/12/20 00:26:11;;;;;;;2.93;1.10;;;;;;;4.60;68.95;101282.03;5040085;28;20213;-68
2021/12/20 00:28:37;;;;;;;3.97;0.70;;;;;;;4.87;68.69;101286.75;5056699;28;20202;-68
2021/12/20 00:31:02;;;;;;;2.93;1.00;;;;;;;4.61;69.16;101303.16;5056777;28;20635;-68
2021/12/20 00:33:33;;;;;;;4.63;1.20;;;;;;;4.81;68.84;101278.91;5074545;28;20163;-68
2021/12/20 00:35:58;;;;;;;6.93;1.40;;;;;;;4.80;68.27;101278.94;5057372;28;20223;-68
2021/12/20 00:41:09;;;;;;;5.47;0.87;;;;;;;4.69;68.48;101288.00;5039843;28;20163;-73
2021/12/20 00:43:34;;;;;;;4.07;1.40;;;;;;;4.49;69.78;101295.50;5037217;28;20181;-72
2021/12/20 00:45:59;;;;;;;6.80;1.00;;;;;;;4.71;69.39;101303.81;5054940;28;20200;-72
2021/12/20 00:48:24;;;;;;;4.13;0.97;;;;;;;4.94;68.52;101312.16;5037218;28;20678;-72
2021/12/20 00:50:50;;;;;;;3.80;1.00;;;;;;;5.18;67.94;101308.06;5036887;28;20180;-73
2021/12/20 00:53:15;;;;;;;5.53;1.30;;;;;;;4.82;68.29;101300.94;5036547;28;20229;-72
2021/12/20 00:55:41;;;;;;;7.40;1.10;;;;;;;4.96;67.95;101293.59;5036557;28;20183;-71
2021/12/20 00:58:06;;;;;;;5.53;1.07;;;;;;;4.93;68.28;101298.97;5036563;28;20199;-71
2021/12/20 01:00:38;;;;;;;3.83;1.67;;;;;;;4.82;68.73;101303.59;5036375;28;20551;-72
2021/12/20 01:03:04;;;;;;;5.10;1.47;;;;;;;5.10;68.21;101307.38;5019639;28;20164;-73
2021/12/20 01:05:29;;;;;;;6.07;1.40;;;;;;;5.00;68.16;101316.41;5054355;28;20171;-74
2021/12/20 01:07:58;;;;;;;7.77;1.43;;;;;;;4.96;67.76;101305.03;5036341;28;20252;-72
2021/12/20 01:10:25;;;;;;;4.70;1.20;;;;;;;5.16;67.69;101323.09;5020232;28;20183;-72
2021/12/20 01:12:51;;;;;;;5.43;1.80;;;;;;;5.01;68.10;101319.03;5019850;28;20190;-71
2021/12/20 01:15:23;;;;;;;5.03;1.00;;;;;;;5.30;67.96;101331.59;5019778;28;20183;-73
2021/12/20 01:17:49;;;;;;;4.70;1.40;;;;;;;5.10;67.88;101322.38;5035870;28;20192;-72
2021/12/20 01:20:15;;;;;;;7.23;1.40;;;;;;;5.21;67.81;101323.03;5019657;28;20180;-72
2021/12/20 01:22:42;;;;;;;6.80;1.20;;;;;;;4.86;68.73;101313.22;5019710;28;20188;-72
2021/12/20 01:25:07;;;;;;;6.67;1.73;;;;;;;4.94;68.83;101322.72;5036382;28;20666;-72
2021/12/20 01:27:33;;;;;;;8.67;1.27;;;;;;;4.82;69.68;101325.63;5036180;28;20211;-73
2021/12/20 01:29:58;;;;;;;6.00;1.50;;;;;;;5.38;67.95;101338.50;5054798;28;20183;-72
2021/12/20 01:32:23;;;;;;;5.33;1.13;;;;;;;5.30;67.95;101336.91;5036418;28;20178;-72
2021/12/20 01:34:48;;;;;;;11.30;1.40;;;;;;;5.19;68.29;101323.03;5054556;28;20180;-72
2021/12/20 01:37:15;;;;;;;7.80;1.30;;;;;;;5.22;68.30;101332.69;5053903;28;20743;-72
2021/12/20 01:39:41;;;;;;;7.53;1.53;;;;;;;5.05;68.50;101334.84;5054131;28;20198;-72
2021/12/20 01:42:06;;;;;;;6.33;1.00;;;;;;;5.19;68.53;101346.84;5036176;28;20187;-72
2021/12/20 01:44:32;;;;;;;8.93;1.40;;;;;;;4.78;69.92;101350.38;5036044;28;20517;-72
2021/12/20 01:47:00;;;;;;;7.23;1.70;;;;;;;5.05;69.60;101351.59;5035722;28;20620;-72
2021/12/20 01:49:25;;;;;;;4.97;1.27;;;;;;;5.02;68.93;101333.13;5036588;28;20635;-72
2021/12/20 01:54:16;;;;;;;5.97;1.07;;;;;;;5.05;69.20;101330.41;5036097;28;20217;-73
2021/12/20 01:56:43;;;;;;;8.80;1.23;;;;;;;4.99;69.14;101319.97;5035937;28;20670;-72
2021/12/20 01:59:09;;;;;;;6.20;1.10;;;;;;;5.21;68.62;101323.88;5019590;28;20598;-73
2021/12/20 02:01:35;;;;;;;5.17;1.30;;;;;;;5.05;68.56;101306.59;5035884;28;20175;-73
2021/12/20 02:04:03;;;;;;;3.97;1.10;;;;;;;5.12;68.53;101323.22;5035935;28;20241;-72
2021/12/20 02:06:44;;;;;;;5.10;1.27;;;;;;;4.60;69.77;101343.72;5053372;28;20203;-72
2021/12/20 02:09:12;;;;;;;7.83;1.37;;;;;;;4.68;70.59;101357.66;5021235;28;20544;-73
2021/12/20 02:11:40;;;;;;;2.03;0.70;;;;;;;4.32;71.13;101368.94;5036113;28;20183;-72
2021/12/20 02:14:06;;;;;;;8.20;1.20;;;;;;;4.10;72.71;101372.88;5037009;28;20261;-72
2021/12/20 02:16:33;;;;;;;6.47;1.37;;;;;;;4.23;72.34;101371.75;5039875;28;20179;-71
2021/12/20 02:19:03;;;;;;;8.87;1.37;;;;;;;4.27;72.01;101339.97;5040260;28;20171;-72
2021/12/20 02:21:29;;;;;;;6.37;1.10;;;;;;;4.58;71.52;101342.88;5039847;28;20186;-72
2021/12/20 02:23:54;;;;;;;8.73;1.40;;;;;;;4.88;70.53;101322.88;5022965;28;20274;-72
2021/12/20 02:26:22;;;;;;;5.30;1.10;;;;;;;5.01;70.06;101334.03;5039871;28;20207;-73
2021/12/20 02:28:50;;;;;;;7.03;1.30;;;;;;;4.83;70.27;101322.09;5042429;28;20176;-72
2021/12/20 02:39:15;;;;;;;9.13;1.20;;;;;;;4.99;70.33;101336.72;5058318;28;20306;-72
2021/12/20 02:41:41;;;;;;;3.30;1.10;;;;;;;5.20;69.49;101332.75;5023687;28;20209;-74
2021/12/20 02:44:15;;;;;;;4.03;1.30;;;;;;;4.85;70.58;101336.16;5040064;28;20187;-72
2021/12/20 02:49:27;;;;;;;5.73;1.33;;;;;;;5.02;70.14;101338.41;5039979;28;20184;-72
2021/12/20 02:51:54;;;;;;;9.60;1.50;;;;;;;5.03;70.11;101342.81;5041322;28;20624;-72
2021/12/20 02:54:21;;;;;;;5.43;1.40;;;;;;;4.88;70.96;101335.22;5039749;28;20184;-72
2021/12/20 02:56:47;;;;;;;9.00;1.50;;;;;;;4.93;70.73;101336.00;5022643;28;20223;-72
2021/12/20 02:59:13;;;;;;;6.43;1.07;;;;;;;5.05;70.03;101343.66;5039480;28;20640;-73
2021/12/20 03:01:40;;;;;;;8.57;1.53;;;;;;;4.93;70.58;101338.63;5039161;28;20180;-73
2021/12/20 03:04:06;;;;;;;6.80;1.00;;;;;;;4.95;70.13;101329.75;5039229;28;20172;-72
2021/12/20 03:06:42;;;;;;;7.70;1.17;;;;;;;5.09;70.81;101329.44;5039186;28;20643;-73
2021/12/20 03:09:11;;;;;;;4.57;1.53;;;;;;;5.18;70.40;101345.09;5039695;28;20171;-71
2021/12/20 03:11:37;;;;;;;9.30;1.73;;;;;;;5.00;70.38;101325.22;5022637;28;20547;-72
2021/12/20 03:14:25;;;;;;;5.33;1.00;;;;;;;5.12;70.17;101329.38;5039403;28;20175;-72
2021/12/20 03:16:50;;;;;;;6.07;1.30;;;;;;;4.96;70.46;101320.91;5025057;28;20191;-72
2021/12/20 03:19:15;;;;;;;8.60;1.20;;;;;;;5.08;70.03;101338.28;5039140;28;20229;-72
2021/12/20 03:21:40;;;;;;;3.93;1.03;;;;;;;5.06;70.09;101323.34;5039703;28;20183;-72
2021/12/20 03:24:06;;;;;;;6.63;0.97;;;;;;;4.95;70.62;101344.75;5040040;28;20175;-72
2021/12/20 03:26:32;;;;;;;6.73;0.93;;;;;;;4.56;71.55;101354.38;5023009;28;20232;-72
2021/12/20 03:28:58;;;;;;;8.13;1.23;;;;;;;4.40;72.79;101367.00;5023894;28;20183;-72
2021/12/20 03:31:23;;;;;;;8.40;1.37;;;;;;;4.57;72.19;101349.06;5027763;28;20179;-72
2021/12/20 03:33:48;;;;;;;3.37;1.03;;;;;;;4.74;71.37;101338.13;5028303;28;20560;-72
2021/12/20 03:36:14;;;;;;;8.43;1.10;;;;;;;4.99;70.79;101336.72;5027850;28;20592;-72
2021/12/20 03:38:39;;;;;;;5.03;1.10;;;;;;;4.79;70.84;101322.16;5026110;28;20691;-73
2021/12/20 03:41:04;;;;;;;8.43;1.20;;;;;;;4.63;71.46;101329.56;5059969;28;20187;-72
2021/12/20 03:43:31;;;;;;;7.67;1.37;;;;;;;4.93;71.08;101351.84;5033301;28;20188;-71
2021/12/20 03:45:58;;;;;;;3.47;1.10;;;;;;;4.80;71.28;101355.66;5038321;28;20199;-72
2021/12/20 03:48:23;;;;;;;4.97;1.00;;;;;;;4.53;71.99;101342.09;5037111;28;20259;-71
2021/12/20 03:50:49;;;;;;;5.00;1.27;;;;;;;4.84;71.69;101352.94;5054584;28;20175;-72
2021/12/20 03:53:14;;;;;;;11.30;1.50;;;;;;;4.69;71.78;101361.16;5048453;28;20205;-72
2021/12/20 03:55:39;;;;;;;7.97;1.37;;;;;;;4.66;71.25;101350.66;5048381;28;20180;-72
2021/12/20 03:58:05;;;;;;;3.27;1.20;;;;;;;4.19;72.65;101352.44;5047563;28;20644;-72
2021/12/20 04:00:31;;;;;;;5.60;1.20;;;;;;;4.46;72.46;101372.22;5032134;28;20191;-72
2021/12/20 04:02:56;;;;;;;12.73;2.40;;;;;;;4.45;71.98;101364.28;5035700;28;20189;-72
2021/12/20 04:05:22;;;;;;;6.23;0.93;;;;;;;4.51;71.90;101364.19;5075081;28;20251;-72
2021/12/20 04:07:47;;;;;;;4.17;1.20;;;;;;;4.85;70.91;101359.97;5056011;28;20207;-73
2021/12/20 04:10:12;;;;;;;11.27;1.50;;;;;;;4.93;70.60;101362.44;5057200;28;20182;-72
2021/12/20 04:12:38;;;;;;;4.30;1.30;;;;;;;4.96;71.20;101370.31;5055882;28;20185;-72
2021/12/20 04:15:05;;;;;;;8.83;1.40;;;;;;;4.97;70.50;101385.28;5055828;28;20198;-71
2021/12/20 04:17:30;;;;;;;6.00;1.20;;;;;;;4.41;71.67;101384.63;5055637;28;20180;-72
2021/12/20 04:19:56;;;;;;;5.13;1.30;;;;;;;4.72;71.96;101388.41;5022022;28;20179;-72
2021/12/20 04:22:21;;;;;;;4.53;1.40;;;;;;;4.68;71.99;101394.66;5037503;28;20548;-71
2021/12/20 04:24:46;;;;;;;3.80;1.63;;;;;;;4.72;71.53;101382.25;5037714;28;20524;-72
2021/12/20 04:27:12;;;;;;;10.40;1.23;;;;;;;4.73;71.54;101376.06;5020453;28;20210;-72
2021/12/20 04:29:37;;;;;;;6.67;1.80;;;;;;;4.77;71.28;101376.88;5037633;28;20179;-72
2021/12/20 04:32:03;;;;;;;4.47;1.33;;;;;;;4.87;71.06;101383.72;5037186;28;20209;-72
2021/12/20 04:34:29;;;;;;;6.07;1.17;;;;;;;4.86;71.37;101380.22;5021068;28;20176;-72
2021/12/20 04:36:54;;;;;;;6.10;1.00;;;;;;;4.87;71.23;101387.25;5036335;28;20195;-72
2021/12/20 04:39:24;;;;;;;6.57;1.20;;;;;;;4.72;71.28;101375.19;5055185;28;20190;-72
2021/12/20 04:41:49;;;;;;;4.53;1.23;;;;;;;4.83;71.57;101385.56;5021269;28;20183;-71
2021/12/20 04:44:14;;;;;;;6.33;1.23;;;;;;;4.63;71.94;101391.25;5037132;28;20171;-73
2021/12/20 04:46:39;;;;;;;14.07;1.60;;;;;;;4.64;72.43;101403.56;5036975;28;20203;-73
2021/12/20 04:49:05;;;;;;;4.20;1.23;;;;;;;4.85;71.06;101390.84;5037438;28;20167;-73
2021/12/20 04:51:30;;;;;;;4.07;1.20;;;;;;;4.76;72.09;101401.56;5054603;28;20168;-73
2021/12/20 04:53:55;;;;;;;8.03;1.30;;;;;;;4.62;71.74;101388.63;5036821;28;20212;-72
2021/12/20 04:56:21;;;;;;;7.00;2.07;;;;;;;4.85;71.91;101401.41;5054747;28;20164;-72
2021/12/20 04:58:46;;;;;;;7.00;1.43;;;;;;;4.92;71.48;101395.09;5036822;28;20187;-71
2021/12/20 05:01:11;;;;;;;4.30;1.10;;;;;;;4.81;71.65;101390.00;5054306;28;20170;-72
2021/12/20 05:03:37;;;;;;;7.40;1.43;;;;;;;4.90;71.77;101402.19;5036766;28;20172;-73
2021/12/20 05:06:02;;;;;;;11.60;1.50;;;;;;;4.83;71.35;101388.22;5036883;28;20199;-73
2021/12/20 05:08:34;;;;;;;4.40;0.97;;;;;;;4.94;71.37;101406.50;5036317;28;20195;-72
2021/12/20 05:11:00;;;;;;;6.10;1.03;;;;;;;4.90;72.05;101411.00;5037429;28;20565;-71
2021/12/20 05:13:25;;;;;;;4.83;1.27;;;;;;;4.58;73.19;101406.34;5036353;28;20184;-72
2021/12/20 05:15:51;;;;;;;3.53;1.20;;;;;;;4.87;72.55;101428.69;5019823;28;20180;-72
2021/12/20 05:18:17;;;;;;;6.90;1.33;;;;;;;4.89;71.82;101416.31;5036518;28;20192;-72
2021/12/20 05:20:42;;;;;;;6.63;1.70;;;;;;;4.90;71.69;101412.75;5020057;28;20713;-72
2021/12/20 05:23:08;;;;;;;6.60;1.80;;;;;;;4.83;72.24;101424.34;5036139;28;20167;-71
2021/12/20 05:25:33;;;;;;;9.17;2.03;;;;;;;4.93;71.86;101418.00;5036100;28;20556;-72
2021/12/20 05:27:59;;;;;;;5.60;1.63;;;;;;;4.85;72.36;101404.94;5020563;28;20195;-72
2021/12/20 05:30:24;;;;;;;5.67;1.40;;;;;;;4.84;72.05;101407.59;5037613;28;20168;-72
2021/12/20 05:32:49;;;;;;;6.00;1.57;;;;;;;4.66;71.75;101399.13;5020395;28;20266;-72
2021/12/20 05:35:16;;;;;;;6.53;1.60;;;;;;;4.82;72.88;101439.34;5019779;28;20207;-72
2021/12/20 05:37:42;;;;;;;11.93;1.50;;;;;;;4.63;73.13;101432.69;5037011;28;20537;-71
2021/12/20 05:40:09;;;;;;;6.33;1.50;;;;;;;4.95;72.53;101430.28;5036637;28;20172;-71
2021/12/20 05:42:35;;;;;;;7.40;1.67;;;;;;;4.78;72.28;101413.84;5036190;28;20325;-70
2021/12/20 05:45:00;;;;;;;6.10;1.30;;;;;;;4.81;72.35;101424.38;5036018;28;20203;-72
2021/12/20 05:47:25;;;;;;;9.50;1.23;;;;;;;4.70;72.77;101429.00;5035730;28;20203;-70
2021/12/20 05:49:51;;;;;;;7.07;1.40;;;;;;;4.77;72.77;101429.75;5038822;28;20176;-70
2021/12/20 05:52:17;;;;;;;5.63;1.20;;;;;;;4.68;72.69;101428.16;5040499;28;20221;-71
2021/12/20 05:54:43;;;;;;;7.80;1.83;;;;;;;4.87;71.72;101426.94;5040693;28;20664;-71
2021/12/20 05:57:08;;;;;;;4.13;1.07;;;;;;;4.51;73.55;101433.78;5022596;28;20211;-64
2021/12/20 05:59:34;;;;;;;7.90;1.20;;;;;;;4.61;73.10;101445.06;5035572;28;20274;-60
2021/12/20 06:01:59;;;;;;;4.37;1.13;;;;;;;4.65;73.08;101450.25;5053059;28;20254;-56
2021/12/20 06:04:24;;;;;;;5.77;1.23;;;;;;;4.82;72.63;101442.00;5054522;28;20176;-74
2021/12/20 06:06:49;;;;;;;6.40;1.33;;;;;;;4.69;73.02;101438.72;5035566;28;20204;-74
2021/12/20 06:09:15;;;;;;;6.80;1.40;;;;;;;4.81;73.06;101442.00;5019321;28;20184;-73
2021/12/20 06:11:40;;;;;;;2.67;1.10;;;;;;;4.74;72.96;101440.41;5036081;28;20721;-74
2021/12/20 06:14:06;;;;;;;8.23;1.20;;;;;;;4.85;72.36;101449.03;5036051;28;20171;-74
2021/12/20 06:16:31;;;;;;;6.80;1.23;;;;;;;4.74;72.92;101440.41;5036277;28;20214;-73
2021/12/20 06:18:56;;;;;;;7.40;1.20;;;;;;;4.75;72.77;101458.00;5036043;28;20221;-76
2021/12/20 06:21:23;;;;;;;6.57;1.40;;;;;;;4.78;72.24;101444.72;5020152;28;20179;-64
2021/12/20 06:23:48;;;;;;;6.43;1.43;;;;;;;4.65;73.28;101446.75;5053606;28;20171;-75
2021/12/20 06:26:14;;;;;;;5.33;1.20;;;;;;;4.63;72.86;101441.47;5019561;28;20202;-71
2021/12/20 06:28:39;;;;;;;4.37;1.23;;;;;;;4.79;72.53;101462.34;5036424;28;20192;-76
2021/12/20 06:31:04;;;;;;;7.30;1.50;;;;;;;4.78;72.77;101463.25;5036540;28;20190;-74
2021/12/20 06:33:29;;;;;;;4.70;1.47;;;;;;;4.64;73.05;101460.88;5019241;28;20187;-75
2021/12/20 06:35:55;;;;;;;10.50;1.37;;;;;;;4.74;73.39;101465.06;5036163;28;20178;-76
2021/12/20 06:38:22;;;;;;;8.97;1.20;;;;;;;4.56;73.06;101458.38;5063887;22;20706;-71
2021/12/20 06:40:48;;;;;;;6.63;2.03;;;;;;;4.61;73.58;101477.66;5073220;28;20250;-71
2021/12/20 06:43:14;;;;;;;6.30;1.40;;;;;;;4.67;73.67;101477.53;5073185;28;20617;-72
2021/12/20 06:45:40;;;;;;;7.83;1.50;;;;;;;4.57;73.17;101470.69;5055202;28;20581;-70
2021/12/20 06:48:05;;;;;;;8.37;1.33;;;;;;;4.39;74.12;101481.56;5038348;28;20252;-71
2021/12/20 06:50:31;;;;;;;6.80;1.33;;;;;;;4.69;72.97;101491.59;5073071;28;20205;-71
2021/12/20 06:52:56;;;;;;;4.80;1.27;;;;;;;4.70;72.80;101472.19;5055379;28;20575;-71
2021/12/20 06:55:22;;;;;;;5.53;1.17;;;;;;;4.80;72.61;101467.59;5056770;28;20229;-71
2021/12/20 06:57:47;;;;;;;6.87;1.50;;;;;;;4.33;73.39;101474.63;5055525;28;20199;-71
2021/12/20 07:00:13;;;;;;;8.53;1.30;;;;;;;4.52;73.42;101498.97;5074689;28;20642;-71
2021/12/20 07:02:39;;;;;;;3.40;1.03;;;;;;;4.50;73.94;101489.34;5077182;28;20252;-72
2021/12/20 07:05:05;;;;;;;5.73;1.53;;;;;;;4.61;74.00;101497.94;5076996;28;20184;-71
2021/12/20 07:07:31;;;;;;;5.73;1.20;;;;;;;4.50;74.50;101506.06;5076307;28;20261;-72
2021/12/20 07:09:56;;;;;;;6.87;1.60;;;;;;;4.26;74.61;101495.91;5058640;28;20665;-72
2021/12/20 07:12:21;;;;;;;6.00;1.27;;;;;;;4.29;74.45;101504.66;5058809;28;20171;-71
2021/12/20 07:14:50;;;;;;;7.17;1.30;;;;;;;4.27;74.58;101506.44;5076468;28;20171;-71
2021/12/20 07:17:16;;;;;;;5.27;1.40;;;;;;;4.34;74.73;101513.38;5058965;28;20164;-71
2021/12/20 07:19:41;;;;;;;7.57;1.20;;;;;;;4.13;74.93;101524.28;5076231;28;20187;-72
2021/12/20 07:22:06;;;;;;;6.90;1.20;;;;;;;3.86;74.59;101493.88;5076259;28;20174;-71
2021/12/20 07:24:32;;;;;;;3.47;1.40;;;;;;;4.04;75.56;101525.28;5076612;28;20170;-70
2021/12/20 07:26:57;;;;;;;5.90;1.47;;;;;;;4.10;75.35;101534.91;5058341;28;20605;-72
2021/12/20 07:29:22;;;;;;;4.57;1.40;;;;;;;3.65;76.50;101524.09;5075991;28;20229;-71
2021/12/20 07:31:49;;;;;;;3.83;1.13;;;;;;;4.30;75.46;101550.44;5076031;28;20167;-71
2021/12/20 07:34:14;;;;;;;5.73;1.37;;;;;;;4.55;73.87;101521.84;5058276;28;20175;-72
2021/12/20 07:36:39;;;;;;;5.00;1.23;;;;;;;4.34;74.69;101529.22;5076740;28;20171;-70
2021/12/20 07:39:05;;;;;;;6.40;1.10;;;;;;;4.59;74.26;101539.41;5042022;28;20202;-71
2021/12/20 07:41:31;;;;;;;5.43;1.53;;;;;;;4.45;74.16;101529.03;5076651;28;20601;-71
2021/12/20 07:43:56;;;;;;;4.97;1.53;;;;;;;4.47;74.41;101532.56;5058561;28;20265;-71
2021/12/20 07:46:21;;;;;;;6.10;1.57;;;;;;;4.76;73.13;101539.97;5076914;28;20554;-72
2021/12/20 07:48:47;;;;;;;5.97;1.37;;;;;;;4.49;74.27;101540.47;5076847;28;20226;-71
2021/12/20 07:51:13;;;;;;;7.10;1.70;;;;;;;4.53;74.04;101542.16;5041258;28;20205;-70
2021/12/20 07:53:38;;;;;;;6.53;1.30;;;;;;;4.70;73.94;101540.94;5075474;28;20206;-71
2021/12/20 07:56:04;;;;;;;8.10;1.90;;;;;;;4.74;74.03;101551.47;5076176;28;20163;-71
2021/12/20 07:58:30;;;;;;;7.00;1.43;;;;;;;4.53;74.21;101558.00;5057797;28;20625;-71
2021/12/20 08:00:56;;;;;;;6.37;1.90;;;;;;;4.58;74.05;101567.59;5057848;28;20209;-71
2021/12/20 08:03:21;;;;;;;8.33;1.97;;;;;;;4.68;73.87;101561.25;5057629;28;20616;-71
2021/12/20 08:05:46;;;;;;;5.73;2.00;;;;;;;4.96;72.59;101552.84;5056827;28;20202;-70
2021/12/20 08:08:12;;;;;;;6.67;1.70;;;;;;;5.08;72.38;101547.31;5074959;28;20187;-71
2021/12/20 08:10:37;;;;;;;5.07;1.30;;;;;;;5.00;72.15;101550.09;5056923;28;20250;-72
2021/12/20 08:13:03;;;;;;;5.97;1.30;;;;;;;5.02;71.86;101548.31;5056556;28;20643;-71
2021/12/20 08:15:28;;;;;;;7.33;1.43;;;;;;;5.12;72.14;101548.13;5057114;28;20202;-71
2021/12/20 08:17:54;;;;;;;4.53;1.03;;;;;;;5.03;72.29;101554.47;5074725;28;20249;-71
2021/12/20 08:20:20;;;;;;;9.87;1.57;;;;;;;4.95;72.13;101545.81;5074908;28;20665;-71
2021/12/20 08:22:46;;;;;;;5.33;1.50;;;;;;;4.58;72.85;101564.09;5056975;28;20175;-70
2021/12/20 08:25:12;;;;;;;5.20;1.40;;;;;;;4.06;74.62;101576.31;5074887;28;20221;-72
2021/12/20 08:27:38;;;;;;;3.07;1.00;;;;;;;4.63;74.56;101586.91;5057434;28;20670;-71
2021/12/20 08:30:04;;;;;;;9.83;1.47;;;;;;;4.77;74.15;101583.16;5075393;28;20174;-72
2021/12/20 08:32:30;;;;;;;8.23;1.50;;;;;;;4.93;73.07;101582.00;5075041;28;20171;-71
2021/12/20 08:34:55;;;;;;;5.30;1.53;;;;;;;4.71;74.11;101592.94;5057209;28;20171;-72
2021/12/20 08:37:21;;;;;;;6.00;1.67;;;;;;;4.59;74.44;101595.78;5075191;28;20178;-71
2021/12/20 08:39:46;;;;;;;7.13;1.63;;;;;;;4.28;74.13;101583.94;5057946;28;20297;-71
2021/12/20 08:42:12;;;;;;;9.57;1.77;;;;;;;4.58;73.88;101588.75;5076226;28;20171;-72
2021/12/20 08:44:37;;;;;;;12.20;1.47;;;;;;;4.57;73.61;101579.09;5076655;28;20544;-72
2021/12/20 08:47:02;;;;;;;9.20;1.57;;;;;;;4.96;72.43;101574.88;5076194;28;20227;-72
2021/12/20 08:49:28;;;;;;;4.77;2.23;;;;;;;4.87;73.75;101600.63;5059955;28;20195;-72
2021/12/20 08:51:55;;;;;;;5.63;1.23;;;;;;;4.90;72.53;101584.72;5076297;28;20297;-70
2021/12/20 08:54:20;;;;;;;5.00;1.37;;;;;;;4.88;73.80;101605.91;5057237;28;20175;-71
2021/12/20 08:56:46;;;;;;;8.73;1.70;;;;;;;5.30;73.01;101606.91;5075268;28;20175;-71
2021/12/20 08:59:12;;;;;;;4.77;1.27;;;;;;;5.14;71.55;101581.59;5078881;28;20675;-71
2021/12/20 09:01:37;;;;;;;11.37;1.30;;;;;;;5.51;71.98;101607.38;5079134;28;20167;-72
2021/12/20 09:04:04;;;;;;;7.80;1.83;;;;;;;5.51;72.19;101616.19;5060055;28;20167;-70
2021/12/20 09:06:31;;;;;;;5.67;1.47;;;;;;;6.20;70.27;101609.47;5074542;28;20210;-71
2021/12/20 09:08:57;;;;;;;4.47;1.23;;;;;;;6.27;69.85;101608.41;5056623;28;20274;-71
2021/12/20 09:11:22;;;;;;;7.47;1.40;;;;;;;5.82;70.12;101626.16;5057039;28;20591;-71
2021/12/20 09:13:48;;;;;;;6.57;1.20;;;;;;;5.99;69.94;101617.91;5056521;28;20251;-71
2021/12/20 09:16:14;;;;;;;6.20;1.47;;;;;;;5.43;71.16;101609.28;5074113;28;20188;-71
2021/12/20 09:18:39;;;;;;;5.97;1.20;;;;;;;5.71;72.30;101644.06;5074433;28;20597;-70
2021/12/20 09:21:04;;;;;;;5.33;1.20;;;;;;;5.70;71.56;101647.63;5074344;28;20212;-71
2021/12/20 09:23:32;;;;;;;8.63;1.53;;;;;;;5.28;71.82;101643.09;5074230;28;20249;-70
2021/12/20 09:25:57;;;;;;;5.03;1.33;;;;;;;5.23;71.91;101628.22;5039930;28;20180;-70
2021/12/20 09:28:22;;;;;;;6.77;1.60;;;;;;;5.65;72.33;101651.22;5074549;28;20203;-71
2021/12/20 09:30:48;;;;;;;4.30;1.40;;;;;;;5.93;70.59;101642.72;5074158;28;20256;-72
2021/12/20 09:33:13;;;;;;;4.13;1.43;;;;;;;6.99;68.00;101655.31;5073762;28;20264;-72
2021/12/20 09:35:39;;;;;;;6.93;1.17;;;;;;;7.29;67.55;101663.41;5073745;28;20203;-72
2021/12/20 09:38:08;;;;;;;6.53;1.00;;;;;;;7.47;66.98;101671.78;5073894;28;20258;-72
2021/12/20 09:40:36;;;;;;;8.07;1.43;;;;;;;7.52;66.46;101672.53;5056343;28;20569;-71
2021/12/20 09:43:06;;;;;;;5.40;1.30;;;;;;;7.65;66.45;101670.41;5039505;28;20546;-71
2021/12/20 09:45:32;;;;;;;4.67;1.10;;;;;;;7.43;65.98;101666.56;5073880;28;20176;-71
2021/12/20 09:47:57;;;;;;;4.60;1.13;;;;;;;7.22;67.08;101673.34;5055570;28;20271;-71
2021/12/20 09:50:23;;;;;;;5.33;1.47;;;;;;;7.30;67.40;101681.97;5073959;28;20173;-71
2021/12/20 09:52:49;;;;;;;6.83;1.33;;;;;;;7.61;66.15;101665.22;5055747;28;20168;-71
2021/12/20 09:55:16;;;;;;;7.47;1.30;;;;;;;7.79;66.02;101688.59;5073984;28;20275;-71
2021/12/20 09:57:44;;;;;;;4.13;1.10;;;;;;;7.91;65.29;101682.09;5074032;28;20244;-72
2021/12/20 10:00:10;;;;;;;6.67;1.37;;;;;;;8.16;64.79;101688.44;5055867;28;20559;-71
2021/12/20 10:02:36;;;;;;;2.83;1.30;;;;;;;8.02;64.35;101678.22;5056414;28;20177;-74
2021/12/20 10:05:01;;;;;;;7.67;1.50;;;;;;;7.81;64.97;101668.22;5056167;28;20566;-72
2021/12/20 10:07:28;;;;;;;8.70;1.60;;;;;;;7.66;65.61;101684.56;5055742;28;20563;-72
2021/12/20 10:09:54;;;;;;;6.23;1.43;;;;;;;7.49;66.32;101677.06;5073675;28;20216;-72
2021/12/20 10:12:24;;;;;;;4.60;1.77;;;;;;;7.79;66.54;101700.09;5074308;28;20177;-70
2021/12/20 10:15:03;;;;;;;5.33;1.23;;;;;;;7.35;66.87;101685.38;5055989;28;20630;-71
2021/12/20 10:17:49;;;;;;;10.63;1.60;;;;;;;7.77;66.58;101707.25;5073369;28;20263;-71
2021/12/20 10:20:26;;;;;;;5.13;1.27;;;;;;;7.31;67.94;101712.91;5055625;28;20256;-71
2021/12/20 10:22:53;;;;;;;6.63;1.30;;;;;;;7.28;68.36;101706.81;5073701;28;20164;-72
2021/12/20 10:25:27;;;;;;;6.27;1.43;;;;;;;7.45;67.78;101712.59;5073765;28;20232;-71
2021/12/20 10:27:53;;;;;;;6.17;1.50;;;;;;;8.11;66.20;101711.63;5073679;28;20285;-72
2021/12/20 10:30:31;;;;;;;4.33;1.73;;;;;;;8.77;64.53;101710.56;5073798;28;20176;-72
2021/12/20 10:32:57;;;;;;;8.73;1.90;;;;;;;8.76;64.56;101711.47;5039470;28;20551;-72
2021/12/20 10:35:25;;;;;;;5.90;1.60;;;;;;;8.84;64.11;101700.59;5062774;28;20365;-72
2021/12/20 10:37:53;;;;;;;4.17;1.60;;;;;;;8.72;64.59;101712.50;5079724;28;20202;-73
2021/12/20 10:40:18;;;;;;;3.90;1.40;;;;;;;8.99;63.29;101708.09;5076109;28;20196;-72
2021/12/20 10:42:43;;;;;;;6.37;1.50;;;;;;;8.81;62.87;101692.69;5058674;28;20177;-72
2021/12/20 10:45:13;;;;;;;6.03;1.90;;;;;;;8.80;64.49;101715.78;5092131;28;20181;-71
2021/12/20 10:47:42;;;;;;;2.83;1.03;;;;;;;8.68;64.48;101716.19;5070401;28;20279;-71
2021/12/20 10:50:26;;;;;;;4.27;0.93;;;;;;;8.93;63.86;101709.16;5059225;28;20189;-72
2021/12/20 10:52:53;;;;;;;4.70;1.10;;;;;;;10.16;62.13;101744.00;5077199;28;20221;-71
2021/12/20 10:55:35;;;;;;;6.03;1.47;;;;;;;12.97;55.16;101748.09;5061132;28;20194;-72
2021/12/20 10:58:30;;;;;;;5.43;1.30;;;;;;;12.71;55.30;101736.84;5076818;28;20183;-72
2021/12/20 11:02:02;;;;;;;3.40;1.13;;;;;;;15.53;50.67;101769.28;5059163;28;20246;-72
2021/12/20 11:04:26;;;;;;;5.67;1.40;;;;;;;16.41;46.73;101734.31;5063238;28;20178;-72
2021/12/20 11:09:04;;;;;;;2.90;1.10;;;;;;;17.45;45.35;101762.59;5058959;28;20205;-72
2021/12/20 11:09:46;;;;;;;3.33;1.27;;;;;;;18.13;43.98;101762.44;5076060;28;20205;-72
2021/12/20 11:12:13;;;;;;;2.57;1.07;;;;;;;18.74;43.53;101780.63;5076552;28;20441;-72
2021/12/20 11:14:41;;;;;;;3.77;1.30;;;;;;;17.94;43.29;101725.06;5076221;28;20175;-72
2021/12/20 11:17:09;;;;;;;7.10;1.30;;;;;;;18.83;42.85;101764.69;5076466;28;20167;-70
2021/12/20 11:19:39;;;;;;;5.63;1.20;;;;;;;18.90;42.96;101750.59;5076188;28;20193;-72
2021/12/20 11:22:05;;;;;;;3.27;1.07;;;;;;;18.51;42.82;101740.81;5058672;28;20171;-71
2021/12/20 11:24:51;;;;;;;3.27;1.10;;;;;;;19.92;40.28;101758.25;5076376;28;20163;-71
2021/12/20 11:27:23;;;;;;;5.60;1.43;;;;;;;16.18;45.39;101702.56;5059165;28;20586;-70
2021/12/20 11:29:51;;;;;;;4.07;1.50;;;;;;;20.08;41.34;101768.78;5057959;28;20674;-70
2021/12/20 11:32:18;;;;;;;4.50;1.67;;;;;;;18.85;42.13;101731.16;5075637;28;20171;-70
2021/12/20 11:34:44;;;;;;;4.23;1.20;;;;;;;18.35;42.41;101718.56;5075779;28;20253;-71
2021/12/20 11:37:12;;;;;;;2.67;1.10;;;;;;;17.15;43.71;101695.38;5075602;28;20258;-70
2021/12/20 11:39:38;;;;;;;4.30;1.60;;;;;;;18.54;42.22;101723.50;5057580;28;20238;-71
2021/12/20 11:42:06;;;;;;;3.83;1.20;;;;;;;16.65;44.81;101722.91;5075570;28;20643;-70
2021/12/20 11:44:32;;;;;;;2.00;1.07;;;;;;;14.26;48.13;101705.72;5057702;28;20190;-70
2021/12/20 11:47:07;;;;;;;3.27;1.20;;;;;;;14.82;49.24;101747.41;5075384;28;20199;-71